Αναφορές METAR

 

LGKZ - Kozani (civ/Army, Greece
Distance from station: ΝΔ 41km
Ενημερώθηκε: 11/12/2018 13:50
NOT Current
Μερικώς νεφελώδης
Μερικώς νεφελώδης
 Ανεμος από ΔΒΔ
Ανεμος: ΔΒΔ 26 km/h
Θερμοκρασία: 5°C
Wind Chill: 1°C
Σημείο Δρόσου: -9°C
Υγρασία: 36%
Βαρόμετρο: 1013 hPa
Clouds: Μερικώς νεφελώδης
Visibility: 10 km
Cloud details: Few Clouds 762 m
Μερικώς νεφελώδης 2134 m
2018/12/11 11:50 LGKZ 111150Z 30014KT 9999 FEW025 SCT070 05/M09 Q1013
LGTS - Thessaloniki/Mik, Greece
Distance from station: Α 64km
Ενημερώθηκε: 11/12/2018 23:50
Few Clouds
Few Clouds
 Ανεμος από Β
Ανεμος: Β 24 km/h, Ριπή: 46 km/h
Θερμοκρασία: 7°C
Wind Chill: 3°C
Σημείο Δρόσου: -4°C
Υγρασία: 46%
Βαρόμετρο: 1017 hPa
Clouds: Few Clouds
Visibility: 10 km
Cloud details: Few Clouds 762 m
2018/12/11 21:50 LGTS 112150Z 35013G25KT 9999 FEW025 07/M04 Q1017 NOSIG
 
LGIO - Ioannina, Greece
Distance from station: ΝΔ 149km
Ενημερώθηκε: 11/12/2018 19:50
NOT Current
Αίθριος
Αίθριος
 Ανεμος από varies
Ανεμος: varies 0 km/h
Θερμοκρασία: 3°C
Σημείο Δρόσου: -1°C
Υγρασία: 75%
Βαρόμετρο: 1013 hPa
Περίληψη: Αίθριος
Visibility: greater than 10 km
2018/12/11 17:50 LGIO 111750Z /////KT CAVOK 03/M01 Q1013
LGBL - Nea Anchialos, Greece
Distance from station: ΝΝΑ 154km
Ενημερώθηκε: 11/12/2018 23:50
Few Clouds
Few Clouds
 Ανεμος από Δ
Ανεμος: Δ 7 km/h
Θερμοκρασία: 3°C
Wind Chill: 1°C
Σημείο Δρόσου: 0°C
Υγρασία: 81%
Βαρόμετρο: 1017 hPa
Clouds: Few Clouds
Visibility: 10 km
Cloud details: Few Clouds 914 m
2018/12/11 21:50 LGBL 112150Z 28004KT 9999 FEW030 03/M00 Q1017
 
LGSK - Skiathos Island, Greece
Distance from station: ΝΑ 185km
Ενημερώθηκε: 11/12/2018 13:50
NOT Current
Few Clouds
Few Clouds
 Ανεμος από Β
Ανεμος: Β 17 km/h
Θερμοκρασία: 12°C
Σημείο Δρόσου: 4°C
Υγρασία: 58%
Βαρόμετρο: 1014 hPa
Clouds: Few Clouds
Visibility: 10 km
Cloud details: Few Clouds 762 m
2018/12/11 11:50 LGSK 111150Z 35009KT 9999 FEW025 12/04 Q1014
LGKV - Kavala/Chrisoupo, Greece
Distance from station: ΑΒΑ 208km
Ενημερώθηκε: 11/12/2018 20:50
NOT Current
Σχεδόν νεφελώδης
Σχεδόν νεφελώδης
 Ανεμος από calm
Ανεμος: Απνοια
Θερμοκρασία: 6°C
Σημείο Δρόσου: 3°C
Υγρασία: 81%
Βαρόμετρο: 1014 hPa
Clouds: Σχεδόν νεφελώδης
Visibility: 10 km
Cloud details: Few Clouds 610 m
Σχεδόν νεφελώδης 2438 m
2018/12/11 18:50 LGKV 111850Z 00000KT 9999 FEW020 BKN080 06/03 Q1014
 
LGPZ - Preveza/Aktion, Greece
Distance from station: ΝΔ 217km
Ενημερώθηκε: 11/12/2018 23:50
Μερικώς νεφελώδης
Μερικώς νεφελώδης
 Ανεμος από ΒΑ
Ανεμος: ΒΑ 11 km/h
Θερμοκρασία: 7°C
Wind Chill: 5°C
Σημείο Δρόσου: 4°C
Υγρασία: 81%
Βαρόμετρο: 1017 hPa
Clouds: Μερικώς νεφελώδης
Visibility: 10 km
Cloud details: Μερικώς νεφελώδης 762 m
2018/12/11 21:50 LGPZ 112150Z 04006KT 9999 SCT025 07/04 Q1017
LGKR - Ioannis Kapodist, Greece
Distance from station: ΔΝΔ 219km
Ενημερώθηκε: 11/12/2018 23:50
Αίθριος
Αίθριος
 Ανεμος από ΔΒΔ
Ανεμος: ΔΒΔ 11 km/h
Θερμοκρασία: 10°C
Wind Chill: 8°C
Σημείο Δρόσου: -3°C
Υγρασία: 40%
Βαρόμετρο: 1016 hPa
Περίληψη: Αίθριος
Visibility: greater than 10 km
2018/12/11 21:50 LGKR 112150Z 29006KT CAVOK 10/M03 Q1016 NOSIG
 
LGSY - Skiros, Greece
Distance from station: ΝΑ 261km
Ενημερώθηκε: 11/12/2018 22:50
NOT Current
Few Clouds
Few Clouds
 Ανεμος από ΔΒΔ
Ανεμος: ΔΒΔ 22 km/h, Ριπή: 41 km/h
Θερμοκρασία: 10°C
Wind Chill: 7°C
Σημείο Δρόσου: 0°C
Υγρασία: 50%
Βαρόμετρο: 1014 hPa
Clouds: Few Clouds
Visibility: 10 km
Cloud details: Few Clouds 549 m
2018/12/11 20:50 LGSY 112050Z 30012G22KT 9999 FEW018 10/M00 Q1014 RMK SCT080 BKN180 BLU
LGLM - Limnos Island Ar, Greece
Distance from station: ΑΝΑ 266km
Ενημερώθηκε: 11/12/2018 23:50
Ασθενής βροχή, Μερικώς νεφελώδης
Ασθενής βροχή, Μερικώς νεφελώδης
 Ανεμος από ΔΒΔ
Ανεμος: ΔΒΔ 7 km/h
Θερμοκρασία: 5°C
Wind Chill: 3°C
Σημείο Δρόσου: 5°C
Υγρασία: 100%
Βαρόμετρο: 1014 hPa
Περίληψη: Ασθενής βροχή
Clouds: Μερικώς νεφελώδης
Visibility: 10 km
Cloud details: Few Clouds 305 m
Few Clouds 549 m
Μερικώς νεφελώδης 762 m
2018/12/11 21:50 LGLM 112150Z 29004KT 9999 -RA FEW010 FEW018TCU SCT025 05/05 Q1014 RERA
 
LGRX - Araxos (civ/Afb), Greece
Distance from station: ΝΝΔ 271km
Ενημερώθηκε: 11/12/2018 22:50
NOT Current
Μερικώς νεφελώδης
Μερικώς νεφελώδης
 Ανεμος από calm
Ανεμος: Απνοια
Θερμοκρασία: 8°C
Σημείο Δρόσου: 4°C
Υγρασία: 76%
Βαρόμετρο: 1015 hPa
Clouds: Μερικώς νεφελώδης
Visibility: 10 km
Cloud details: Few Clouds 549 m
Μερικώς νεφελώδης 762 m
2018/12/11 20:50 LGRX 112050Z 00000KT 9999 FEW018TCU SCT025 08/04 Q1015 RETS
LGEL - Elefsis (hel-Afb, Greece
Distance from station: ΝΝΑ 297km
Ενημερώθηκε: 11/12/2018 23:50
Μερικώς νεφελώδης
Μερικώς νεφελώδης
 Ανεμος από calm
Ανεμος: Απνοια
Θερμοκρασία: 6°C
Σημείο Δρόσου: 4°C
Υγρασία: 87%
Βαρόμετρο: 1016 hPa
Clouds: Μερικώς νεφελώδης
Visibility: 10 km
Cloud details: Μερικώς νεφελώδης 762 m
Μερικώς νεφελώδης 2134 m
2018/12/11 21:50 LGEL 112150Z 00000KT 9999 SCT025 SCT070 06/04 Q1016
 
LGAD - Andravida (civ/A, Greece
Distance from station: ΝΝΔ 301km
Ενημερώθηκε: 11/12/2018 23:50
Ασθενής βροχή
Ασθενής βροχή
 Ανεμος από varies
Ανεμος: varies 2 km/h
Θερμοκρασία: 6°C
Σημείο Δρόσου: 5°C
Υγρασία: 93%
Βαρόμετρο: 1016 hPa
Περίληψη: Ασθενής βροχή
2018/12/11 21:50 LGAD 112150Z AUTO VRB01KT //// -RA ////// 06/05 Q1016 RE//
LGKF - Kefallinia, Greece
Distance from station: ΝΝΔ 305km
Ενημερώθηκε: 11/12/2018 19:50
NOT Current
Few Clouds
Few Clouds
 Ανεμος από Β
Ανεμος: Β 17 km/h
Θερμοκρασία: 12°C
Σημείο Δρόσου: 4°C
Υγρασία: 58%
Βαρόμετρο: 1014 hPa
Clouds: Few Clouds
Visibility: 10 km
Cloud details: Few Clouds 457 m
2018/12/11 17:50 LGKF 111750Z 36009KT 9999 FEW015 12/04 Q1014